sensor_id;sensor_type;location;lat;lon;timestamp;P1;durP1;ratioP1;P2;durP2;ratioP2
52170;SDS011;38689;47.552;18.820;2023-07-08T00:00:44;4.43;;;2.90;;
52170;SDS011;38689;47.552;18.820;2023-07-08T00:03:13;4.68;;;2.60;;
52170;SDS011;38689;47.552;18.820;2023-07-08T00:05:40;4.32;;;2.75;;
52170;SDS011;38689;47.552;18.820;2023-07-08T00:08:16;6.25;;;2.83;;
52170;SDS011;38689;47.552;18.820;2023-07-08T00:10:43;5.20;;;2.60;;
52170;SDS011;38689;47.552;18.820;2023-07-08T00:13:09;6.95;;;2.97;;
52170;SDS011;38689;47.552;18.820;2023-07-08T00:15:36;4.25;;;2.90;;
52170;SDS011;38689;47.552;18.820;2023-07-08T00:18:05;5.40;;;3.30;;
52170;SDS011;38689;47.552;18.820;2023-07-08T00:20:48;3.78;;;2.90;;
52170;SDS011;38689;47.552;18.820;2023-07-08T00:23:16;4.25;;;2.75;;
52170;SDS011;38689;47.552;18.820;2023-07-08T00:25:47;6.35;;;3.10;;
52170;SDS011;38689;47.552;18.820;2023-07-08T00:28:20;4.80;;;3.20;;
52170;SDS011;38689;47.552;18.820;2023-07-08T00:30:47;5.87;;;3.22;;
52170;SDS011;38689;47.552;18.820;2023-07-08T00:33:13;4.10;;;2.90;;
52170;SDS011;38689;47.552;18.820;2023-07-08T00:35:40;6.35;;;2.92;;
52170;SDS011;38689;47.552;18.820;2023-07-08T00:40:58;4.47;;;3.00;;
52170;SDS011;38689;47.552;18.820;2023-07-08T00:43:35;4.90;;;2.80;;
52170;SDS011;38689;47.552;18.820;2023-07-08T00:48:56;4.53;;;2.90;;
52170;SDS011;38689;47.552;18.820;2023-07-08T00:51:25;5.20;;;2.85;;
52170;SDS011;38689;47.552;18.820;2023-07-08T00:53:51;4.30;;;2.72;;
52170;SDS011;38689;47.552;18.820;2023-07-08T00:59:21;4.22;;;2.87;;
52170;SDS011;38689;47.552;18.820;2023-07-08T01:01:48;4.57;;;2.80;;
52170;SDS011;38689;47.552;18.820;2023-07-08T01:04:17;4.53;;;3.15;;
52170;SDS011;38689;47.552;18.820;2023-07-08T01:06:47;5.28;;;3.03;;
52170;SDS011;38689;47.552;18.820;2023-07-08T01:09:27;4.95;;;2.78;;
52170;SDS011;38689;47.552;18.820;2023-07-08T01:11:54;6.80;;;3.22;;
52170;SDS011;38689;47.552;18.820;2023-07-08T01:14:26;3.50;;;2.50;;
52170;SDS011;38689;47.552;18.820;2023-07-08T01:16:53;5.03;;;3.00;;
52170;SDS011;38689;47.552;18.820;2023-07-08T01:19:19;4.47;;;3.00;;
52170;SDS011;38689;47.552;18.820;2023-07-08T01:24:19;4.30;;;3.00;;
52170;SDS011;38689;47.552;18.820;2023-07-08T01:26:45;3.83;;;2.70;;
52170;SDS011;38689;47.552;18.820;2023-07-08T01:29:12;3.85;;;2.90;;
52170;SDS011;38689;47.552;18.820;2023-07-08T01:31:38;4.22;;;2.70;;
52170;SDS011;38689;47.552;18.820;2023-07-08T01:34:04;5.07;;;3.42;;
52170;SDS011;38689;47.552;18.820;2023-07-08T01:36:34;4.03;;;2.87;;
52170;SDS011;38689;47.552;18.820;2023-07-08T01:39:03;4.93;;;3.42;;
52170;SDS011;38689;47.552;18.820;2023-07-08T01:41:29;4.28;;;3.10;;
52170;SDS011;38689;47.552;18.820;2023-07-08T01:43:55;4.70;;;3.00;;
52170;SDS011;38689;47.552;18.820;2023-07-08T01:46:23;5.55;;;3.40;;
52170;SDS011;38689;47.552;18.820;2023-07-08T01:48:56;4.82;;;3.00;;
52170;SDS011;38689;47.552;18.820;2023-07-08T01:51:24;6.10;;;3.08;;
52170;SDS011;38689;47.552;18.820;2023-07-08T01:53:51;4.85;;;3.40;;
52170;SDS011;38689;47.552;18.820;2023-07-08T01:56:17;3.92;;;3.20;;
52170;SDS011;38689;47.552;18.820;2023-07-08T01:58:43;5.25;;;3.25;;
52170;SDS011;38689;47.552;18.820;2023-07-08T02:01:09;5.32;;;3.05;;
52170;SDS011;38689;47.552;18.820;2023-07-08T02:03:35;9.90;;;3.10;;
52170;SDS011;38689;47.552;18.820;2023-07-08T02:06:02;7.12;;;3.10;;
52170;SDS011;38689;47.552;18.820;2023-07-08T02:08:28;5.15;;;3.30;;
52170;SDS011;38689;47.552;18.820;2023-07-08T02:10:55;5.95;;;3.22;;
52170;SDS011;38689;47.552;18.820;2023-07-08T02:13:23;5.90;;;3.30;;
52170;SDS011;38689;47.552;18.820;2023-07-08T02:15:49;4.87;;;3.10;;
52170;SDS011;38689;47.552;18.820;2023-07-08T02:18:16;5.40;;;3.22;;
52170;SDS011;38689;47.552;18.820;2023-07-08T02:20:44;4.15;;;3.00;;
52170;SDS011;38689;47.552;18.820;2023-07-08T02:23:13;4.75;;;3.10;;
52170;SDS011;38689;47.552;18.820;2023-07-08T02:25:39;4.95;;;2.85;;
52170;SDS011;38689;47.552;18.820;2023-07-08T02:28:05;4.20;;;3.15;;
52170;SDS011;38689;47.552;18.820;2023-07-08T02:30:31;4.65;;;3.10;;
52170;SDS011;38689;47.552;18.820;2023-07-08T02:32:57;4.90;;;3.10;;
52170;SDS011;38689;47.552;18.820;2023-07-08T02:35:27;4.53;;;2.90;;
52170;SDS011;38689;47.552;18.820;2023-07-08T02:37:54;4.20;;;3.20;;
52170;SDS011;38689;47.552;18.820;2023-07-08T02:40:21;4.28;;;2.90;;
52170;SDS011;38689;47.552;18.820;2023-07-08T02:42:48;4.62;;;3.45;;
52170;SDS011;38689;47.552;18.820;2023-07-08T02:45:14;5.80;;;3.25;;
52170;SDS011;38689;47.552;18.820;2023-07-08T02:47:41;5.37;;;3.08;;
52170;SDS011;38689;47.552;18.820;2023-07-08T02:50:07;4.55;;;3.40;;
52170;SDS011;38689;47.552;18.820;2023-07-08T02:52:34;7.25;;;3.20;;
52170;SDS011;38689;47.552;18.820;2023-07-08T02:55:00;4.22;;;3.25;;
52170;SDS011;38689;47.552;18.820;2023-07-08T02:57:26;4.07;;;3.17;;
52170;SDS011;38689;47.552;18.820;2023-07-08T02:59:52;5.97;;;3.55;;
52170;SDS011;38689;47.552;18.820;2023-07-08T03:02:18;4.53;;;3.30;;
52170;SDS011;38689;47.552;18.820;2023-07-08T03:04:44;5.35;;;3.60;;
52170;SDS011;38689;47.552;18.820;2023-07-08T03:07:10;4.20;;;3.30;;
52170;SDS011;38689;47.552;18.820;2023-07-08T03:09:40;7.15;;;3.22;;
52170;SDS011;38689;47.552;18.820;2023-07-08T03:12:07;4.10;;;3.20;;
52170;SDS011;38689;47.552;18.820;2023-07-08T03:14:34;5.85;;;3.78;;
52170;SDS011;38689;47.552;18.820;2023-07-08T03:17:02;6.10;;;3.30;;
52170;SDS011;38689;47.552;18.820;2023-07-08T03:19:28;5.40;;;3.35;;
52170;SDS011;38689;47.552;18.820;2023-07-08T03:21:54;5.70;;;3.75;;
52170;SDS011;38689;47.552;18.820;2023-07-08T03:24:21;8.13;;;3.42;;
52170;SDS011;38689;47.552;18.820;2023-07-08T03:26:47;4.70;;;3.35;;
52170;SDS011;38689;47.552;18.820;2023-07-08T03:29:17;6.87;;;3.40;;
52170;SDS011;38689;47.552;18.820;2023-07-08T03:31:44;6.12;;;3.60;;
52170;SDS011;38689;47.552;18.820;2023-07-08T03:34:11;5.95;;;3.62;;
52170;SDS011;38689;47.552;18.820;2023-07-08T03:36:44;4.30;;;3.40;;
52170;SDS011;38689;47.552;18.820;2023-07-08T03:39:14;5.93;;;3.37;;
52170;SDS011;38689;47.552;18.820;2023-07-08T03:41:44;5.40;;;3.33;;
52170;SDS011;38689;47.552;18.820;2023-07-08T03:44:11;5.97;;;3.80;;
52170;SDS011;38689;47.552;18.820;2023-07-08T03:46:38;7.32;;;3.85;;
52170;SDS011;38689;47.552;18.820;2023-07-08T03:49:05;5.72;;;3.70;;
52170;SDS011;38689;47.552;18.820;2023-07-08T03:51:32;5.80;;;3.60;;
52170;SDS011;38689;47.552;18.820;2023-07-08T03:54:00;6.07;;;3.45;;
52170;SDS011;38689;47.552;18.820;2023-07-08T03:56:26;4.72;;;3.62;;
52170;SDS011;38689;47.552;18.820;2023-07-08T03:58:52;4.80;;;3.60;;
52170;SDS011;38689;47.552;18.820;2023-07-08T04:01:19;5.43;;;3.53;;
52170;SDS011;38689;47.552;18.820;2023-07-08T04:03:50;4.72;;;3.62;;
52170;SDS011;38689;47.552;18.820;2023-07-08T04:06:17;4.82;;;3.17;;
52170;SDS011;38689;47.552;18.820;2023-07-08T04:08:43;4.68;;;3.42;;
52170;SDS011;38689;47.552;18.820;2023-07-08T04:11:13;4.97;;;3.58;;
52170;SDS011;38689;47.552;18.820;2023-07-08T04:13:41;5.57;;;3.30;;
52170;SDS011;38689;47.552;18.820;2023-07-08T04:16:07;5.68;;;3.70;;
52170;SDS011;38689;47.552;18.820;2023-07-08T04:18:35;5.65;;;3.33;;
52170;SDS011;38689;47.552;18.820;2023-07-08T04:21:01;4.45;;;3.50;;
52170;SDS011;38689;47.552;18.820;2023-07-08T04:23:28;5.90;;;3.60;;
52170;SDS011;38689;47.552;18.820;2023-07-08T04:25:55;4.90;;;3.42;;
52170;SDS011;38689;47.552;18.820;2023-07-08T04:28:22;8.20;;;3.85;;
52170;SDS011;38689;47.552;18.820;2023-07-08T04:30:48;5.95;;;3.75;;
52170;SDS011;38689;47.552;18.820;2023-07-08T04:33:14;6.20;;;3.83;;
52170;SDS011;38689;47.552;18.820;2023-07-08T04:35:41;7.15;;;3.67;;
52170;SDS011;38689;47.552;18.820;2023-07-08T04:38:19;5.53;;;3.70;;
52170;SDS011;38689;47.552;18.820;2023-07-08T04:40:49;5.25;;;3.58;;
52170;SDS011;38689;47.552;18.820;2023-07-08T04:43:16;7.25;;;3.70;;
52170;SDS011;38689;47.552;18.820;2023-07-08T04:45:44;8.48;;;3.70;;
52170;SDS011;38689;47.552;18.820;2023-07-08T04:48:15;5.37;;;3.40;;
52170;SDS011;38689;47.552;18.820;2023-07-08T04:50:42;5.65;;;3.47;;
52170;SDS011;38689;47.552;18.820;2023-07-08T04:53:10;6.03;;;3.33;;
52170;SDS011;38689;47.552;18.820;2023-07-08T04:55:40;4.62;;;3.50;;
52170;SDS011;38689;47.552;18.820;2023-07-08T04:58:08;4.43;;;3.33;;
52170;SDS011;38689;47.552;18.820;2023-07-08T05:00:34;4.85;;;3.40;;
52170;SDS011;38689;47.552;18.820;2023-07-08T05:03:00;4.68;;;3.30;;
52170;SDS011;38689;47.552;18.820;2023-07-08T05:05:26;4.40;;;3.10;;
52170;SDS011;38689;47.552;18.820;2023-07-08T05:07:52;4.40;;;3.20;;
52170;SDS011;38689;47.552;18.820;2023-07-08T05:10:18;4.47;;;3.00;;
52170;SDS011;38689;47.552;18.820;2023-07-08T05:12:45;5.32;;;3.20;;
52170;SDS011;38689;47.552;18.820;2023-07-08T05:15:11;5.45;;;3.08;;
52170;SDS011;38689;47.552;18.820;2023-07-08T05:17:38;5.45;;;3.60;;
52170;SDS011;38689;47.552;18.820;2023-07-08T05:20:05;4.40;;;3.12;;
52170;SDS011;38689;47.552;18.820;2023-07-08T05:22:36;4.15;;;2.92;;
52170;SDS011;38689;47.552;18.820;2023-07-08T05:25:03;5.07;;;2.90;;
52170;SDS011;38689;47.552;18.820;2023-07-08T05:27:30;5.20;;;3.20;;
52170;SDS011;38689;47.552;18.820;2023-07-08T05:29:59;4.87;;;3.30;;
52170;SDS011;38689;47.552;18.820;2023-07-08T05:32:26;5.10;;;3.20;;
52170;SDS011;38689;47.552;18.820;2023-07-08T05:34:52;5.55;;;3.28;;
52170;SDS011;38689;47.552;18.820;2023-07-08T05:37:18;4.45;;;3.05;;
52170;SDS011;38689;47.552;18.820;2023-07-08T05:39:49;4.18;;;3.00;;
52170;SDS011;38689;47.552;18.820;2023-07-08T05:42:15;4.30;;;2.97;;
52170;SDS011;38689;47.552;18.820;2023-07-08T05:44:41;4.80;;;2.95;;
52170;SDS011;38689;47.552;18.820;2023-07-08T05:47:07;4.97;;;3.10;;
52170;SDS011;38689;47.552;18.820;2023-07-08T05:49:33;3.95;;;2.80;;
52170;SDS011;38689;47.552;18.820;2023-07-08T05:51:58;6.32;;;2.90;;
52170;SDS011;38689;47.552;18.820;2023-07-08T05:54:31;4.75;;;3.20;;
52170;SDS011;38689;47.552;18.820;2023-07-08T05:56:57;5.72;;;3.22;;
52170;SDS011;38689;47.552;18.820;2023-07-08T05:59:22;5.70;;;2.97;;
52170;SDS011;38689;47.552;18.820;2023-07-08T06:01:48;4.25;;;2.90;;
52170;SDS011;38689;47.552;18.820;2023-07-08T06:04:14;5.37;;;3.20;;
52170;SDS011;38689;47.552;18.820;2023-07-08T06:06:40;4.62;;;3.20;;
52170;SDS011;38689;47.552;18.820;2023-07-08T06:09:06;4.80;;;3.00;;
52170;SDS011;38689;47.552;18.820;2023-07-08T06:11:32;4.97;;;3.20;;
52170;SDS011;38689;47.552;18.820;2023-07-08T06:13:58;5.00;;;3.15;;
52170;SDS011;38689;47.552;18.820;2023-07-08T06:16:24;4.97;;;3.08;;
52170;SDS011;38689;47.552;18.820;2023-07-08T06:18:50;4.55;;;2.78;;
52170;SDS011;38689;47.552;18.820;2023-07-08T06:21:16;6.57;;;2.97;;
52170;SDS011;38689;47.552;18.820;2023-07-08T06:23:43;4.28;;;3.10;;
52170;SDS011;38689;47.552;18.820;2023-07-08T06:26:09;4.82;;;3.00;;
52170;SDS011;38689;47.552;18.820;2023-07-08T06:28:35;4.85;;;3.10;;
52170;SDS011;38689;47.552;18.820;2023-07-08T06:31:01;4.55;;;3.15;;
52170;SDS011;38689;47.552;18.820;2023-07-08T06:33:27;3.33;;;2.50;;
52170;SDS011;38689;47.552;18.820;2023-07-08T06:35:53;5.55;;;3.00;;
52170;SDS011;38689;47.552;18.820;2023-07-08T06:38:18;8.32;;;2.92;;
52170;SDS011;38689;47.552;18.820;2023-07-08T06:40:44;4.47;;;2.85;;
52170;SDS011;38689;47.552;18.820;2023-07-08T06:43:10;4.20;;;2.83;;
52170;SDS011;38689;47.552;18.820;2023-07-08T06:45:36;4.40;;;2.70;;
52170;SDS011;38689;47.552;18.820;2023-07-08T06:48:02;4.40;;;2.83;;
52170;SDS011;38689;47.552;18.820;2023-07-08T06:50:28;3.80;;;2.80;;
52170;SDS011;38689;47.552;18.820;2023-07-08T06:52:56;6.00;;;2.70;;
52170;SDS011;38689;47.552;18.820;2023-07-08T06:55:22;3.55;;;2.50;;
52170;SDS011;38689;47.552;18.820;2023-07-08T06:57:47;4.50;;;2.80;;
52170;SDS011;38689;47.552;18.820;2023-07-08T07:00:13;4.45;;;2.60;;
52170;SDS011;38689;47.552;18.820;2023-07-08T07:02:40;4.12;;;2.80;;
52170;SDS011;38689;47.552;18.820;2023-07-08T07:05:06;4.60;;;2.75;;
52170;SDS011;38689;47.552;18.820;2023-07-08T07:07:32;3.33;;;2.47;;
52170;SDS011;38689;47.552;18.820;2023-07-08T07:09:59;3.87;;;2.70;;
52170;SDS011;38689;47.552;18.820;2023-07-08T07:12:25;4.50;;;2.60;;
52170;SDS011;38689;47.552;18.820;2023-07-08T07:14:52;4.40;;;2.60;;
52170;SDS011;38689;47.552;18.820;2023-07-08T07:17:20;3.80;;;2.47;;
52170;SDS011;38689;47.552;18.820;2023-07-08T07:19:47;3.53;;;2.40;;
52170;SDS011;38689;47.552;18.820;2023-07-08T07:22:13;5.32;;;2.90;;
52170;SDS011;38689;47.552;18.820;2023-07-08T07:24:40;4.25;;;2.70;;
52170;SDS011;38689;47.552;18.820;2023-07-08T07:27:06;4.60;;;2.58;;
52170;SDS011;38689;47.552;18.820;2023-07-08T07:29:42;3.67;;;2.30;;
52170;SDS011;38689;47.552;18.820;2023-07-08T07:32:12;3.83;;;2.90;;
52170;SDS011;38689;47.552;18.820;2023-07-08T07:34:39;4.93;;;3.10;;
52170;SDS011;38689;47.552;18.820;2023-07-08T07:37:05;3.70;;;2.58;;
52170;SDS011;38689;47.552;18.820;2023-07-08T07:39:32;3.90;;;2.70;;
52170;SDS011;38689;47.552;18.820;2023-07-08T07:41:58;5.03;;;2.87;;
52170;SDS011;38689;47.552;18.820;2023-07-08T07:44:24;5.93;;;2.60;;
52170;SDS011;38689;47.552;18.820;2023-07-08T07:46:51;3.65;;;2.45;;
52170;SDS011;38689;47.552;18.820;2023-07-08T07:49:18;3.35;;;2.30;;
52170;SDS011;38689;47.552;18.820;2023-07-08T07:51:44;3.40;;;2.30;;
52170;SDS011;38689;47.552;18.820;2023-07-08T07:54:10;3.00;;;1.85;;
52170;SDS011;38689;47.552;18.820;2023-07-08T07:56:36;3.67;;;2.50;;
52170;SDS011;38689;47.552;18.820;2023-07-08T07:59:02;3.75;;;2.30;;
52170;SDS011;38689;47.552;18.820;2023-07-08T08:01:29;3.37;;;2.20;;
52170;SDS011;38689;47.552;18.820;2023-07-08T08:03:55;3.47;;;2.20;;
52170;SDS011;38689;47.552;18.820;2023-07-08T08:06:21;3.62;;;2.20;;
52170;SDS011;38689;47.552;18.820;2023-07-08T08:08:47;3.08;;;2.35;;
52170;SDS011;38689;47.552;18.820;2023-07-08T08:11:15;4.40;;;2.60;;
52170;SDS011;38689;47.552;18.820;2023-07-08T08:13:41;3.40;;;2.42;;
52170;SDS011;38689;47.552;18.820;2023-07-08T08:16:07;3.30;;;2.30;;
52170;SDS011;38689;47.552;18.820;2023-07-08T08:18:33;3.97;;;2.70;;
52170;SDS011;38689;47.552;18.820;2023-07-08T08:20:59;3.00;;;2.30;;
52170;SDS011;38689;47.552;18.820;2023-07-08T08:23:27;4.45;;;2.62;;
52170;SDS011;38689;47.552;18.820;2023-07-08T08:25:53;4.35;;;2.60;;
52170;SDS011;38689;47.552;18.820;2023-07-08T08:28:19;5.62;;;2.40;;
52170;SDS011;38689;47.552;18.820;2023-07-08T08:30:48;4.10;;;2.40;;
52170;SDS011;38689;47.552;18.820;2023-07-08T08:33:15;3.05;;;2.20;;
52170;SDS011;38689;47.552;18.820;2023-07-08T08:35:43;3.75;;;2.40;;
52170;SDS011;38689;47.552;18.820;2023-07-08T08:38:09;3.50;;;2.55;;
52170;SDS011;38689;47.552;18.820;2023-07-08T08:40:35;4.32;;;2.65;;
52170;SDS011;38689;47.552;18.820;2023-07-08T08:43:02;7.37;;;2.37;;
52170;SDS011;38689;47.552;18.820;2023-07-08T08:45:35;4.07;;;2.22;;
52170;SDS011;38689;47.552;18.820;2023-07-08T08:48:05;4.12;;;2.65;;
52170;SDS011;38689;47.552;18.820;2023-07-08T08:50:36;4.72;;;2.35;;
52170;SDS011;38689;47.552;18.820;2023-07-08T08:53:10;3.33;;;2.30;;
52170;SDS011;38689;47.552;18.820;2023-07-08T08:55:38;4.05;;;2.45;;
52170;SDS011;38689;47.552;18.820;2023-07-08T09:00:56;3.50;;;1.70;;
52170;SDS011;38689;47.552;18.820;2023-07-08T09:03:47;2.65;;;1.70;;
52170;SDS011;38689;47.552;18.820;2023-07-08T09:06:11;3.80;;;2.05;;
52170;SDS011;38689;47.552;18.820;2023-07-08T09:08:41;3.67;;;2.00;;
52170;SDS011;38689;47.552;18.820;2023-07-08T09:11:14;3.45;;;1.98;;
52170;SDS011;38689;47.552;18.820;2023-07-08T09:13:44;2.90;;;2.33;;
52170;SDS011;38689;47.552;18.820;2023-07-08T09:18:45;5.85;;;2.50;;
52170;SDS011;38689;47.552;18.820;2023-07-08T09:21:24;4.35;;;2.22;;
52170;SDS011;38689;47.552;18.820;2023-07-08T09:23:55;3.70;;;2.28;;
52170;SDS011;38689;47.552;18.820;2023-07-08T09:26:25;3.85;;;2.15;;
52170;SDS011;38689;47.552;18.820;2023-07-08T09:28:53;3.00;;;2.00;;
52170;SDS011;38689;47.552;18.820;2023-07-08T09:31:23;3.03;;;1.92;;
52170;SDS011;38689;47.552;18.820;2023-07-08T09:33:53;5.50;;;1.75;;
52170;SDS011;38689;47.552;18.820;2023-07-08T09:36:30;3.92;;;2.10;;
52170;SDS011;38689;47.552;18.820;2023-07-08T09:38:56;3.28;;;1.98;;
52170;SDS011;38689;47.552;18.820;2023-07-08T09:41:29;2.72;;;2.12;;
52170;SDS011;38689;47.552;18.820;2023-07-08T09:44:04;3.25;;;2.37;;
52170;SDS011;38689;47.552;18.820;2023-07-08T09:46:39;4.65;;;2.35;;
52170;SDS011;38689;47.552;18.820;2023-07-08T09:49:16;4.32;;;2.22;;
52170;SDS011;38689;47.552;18.820;2023-07-08T09:51:43;7.82;;;2.55;;
52170;SDS011;38689;47.552;18.820;2023-07-08T09:54:10;3.20;;;1.67;;
52170;SDS011;38689;47.552;18.820;2023-07-08T09:56:38;3.40;;;1.90;;
52170;SDS011;38689;47.552;18.820;2023-07-08T09:59:09;3.95;;;2.20;;
52170;SDS011;38689;47.552;18.820;2023-07-08T10:01:37;2.75;;;1.77;;
52170;SDS011;38689;47.552;18.820;2023-07-08T10:04:03;3.00;;;1.87;;
52170;SDS011;38689;47.552;18.820;2023-07-08T10:06:30;3.35;;;2.20;;
52170;SDS011;38689;47.552;18.820;2023-07-08T10:09:02;3.15;;;1.60;;
52170;SDS011;38689;47.552;18.820;2023-07-08T10:11:35;3.87;;;1.77;;
52170;SDS011;38689;47.552;18.820;2023-07-08T10:14:13;3.95;;;2.00;;
52170;SDS011;38689;47.552;18.820;2023-07-08T10:16:47;2.62;;;1.77;;
52170;SDS011;38689;47.552;18.820;2023-07-08T10:19:14;2.90;;;1.80;;
52170;SDS011;38689;47.552;18.820;2023-07-08T10:21:51;3.80;;;1.87;;
52170;SDS011;38689;47.552;18.820;2023-07-08T10:27:28;3.97;;;2.40;;
52170;SDS011;38689;47.552;18.820;2023-07-08T10:41:30;3.27;;;2.33;;
52170;SDS011;38689;47.552;18.820;2023-07-08T10:44:11;4.15;;;2.70;;
52170;SDS011;38689;47.552;18.820;2023-07-08T10:54:47;3.45;;;2.42;;
52170;SDS011;38689;47.552;18.820;2023-07-08T11:05:43;2.53;;;2.00;;
52170;SDS011;38689;47.552;18.820;2023-07-08T11:10:58;4.07;;;2.28;;
52170;SDS011;38689;47.552;18.820;2023-07-08T11:13:27;3.53;;;2.30;;
52170;SDS011;38689;47.552;18.820;2023-07-08T11:16:01;3.47;;;2.42;;
52170;SDS011;38689;47.552;18.820;2023-07-08T11:18:36;5.50;;;2.70;;
52170;SDS011;38689;47.552;18.820;2023-07-08T11:21:08;3.22;;;2.30;;
52170;SDS011;38689;47.552;18.820;2023-07-08T11:23:43;3.85;;;2.40;;
52170;SDS011;38689;47.552;18.820;2023-07-08T11:26:30;4.45;;;2.30;;
52170;SDS011;38689;47.552;18.820;2023-07-08T11:29:00;3.58;;;2.03;;
52170;SDS011;38689;47.552;18.820;2023-07-08T11:31:27;2.78;;;1.80;;
52170;SDS011;38689;47.552;18.820;2023-07-08T11:33:56;3.60;;;2.10;;
52170;SDS011;38689;47.552;18.820;2023-07-08T11:36:23;3.53;;;1.90;;
52170;SDS011;38689;47.552;18.820;2023-07-08T11:38:51;3.53;;;2.20;;
52170;SDS011;38689;47.552;18.820;2023-07-08T11:41:20;3.45;;;1.90;;
52170;SDS011;38689;47.552;18.820;2023-07-08T11:43:48;3.58;;;1.90;;
52170;SDS011;38689;47.552;18.820;2023-07-08T11:46:18;3.12;;;1.62;;
52170;SDS011;38689;47.552;18.820;2023-07-08T11:48:50;3.12;;;1.80;;
52170;SDS011;38689;47.552;18.820;2023-07-08T11:51:22;4.82;;;1.92;;
52170;SDS011;38689;47.552;18.820;2023-07-08T11:56:21;3.12;;;1.90;;
52170;SDS011;38689;47.552;18.820;2023-07-08T12:03:58;2.87;;;1.85;;
52170;SDS011;38689;47.552;18.820;2023-07-08T12:08:59;3.75;;;2.08;;
52170;SDS011;38689;47.552;18.820;2023-07-08T12:11:33;3.87;;;1.90;;
52170;SDS011;38689;47.552;18.820;2023-07-08T12:14:01;6.93;;;1.90;;
52170;SDS011;38689;47.552;18.820;2023-07-08T12:16:28;3.47;;;2.00;;
52170;SDS011;38689;47.552;18.820;2023-07-08T12:18:55;6.15;;;2.22;;
52170;SDS011;38689;47.552;18.820;2023-07-08T12:21:23;3.58;;;2.53;;
52170;SDS011;38689;47.552;18.820;2023-07-08T12:23:53;3.83;;;2.30;;
52170;SDS011;38689;47.552;18.820;2023-07-08T12:26:21;4.10;;;2.17;;
52170;SDS011;38689;47.552;18.820;2023-07-08T12:28:47;4.18;;;2.28;;
52170;SDS011;38689;47.552;18.820;2023-07-08T12:31:17;3.15;;;2.00;;
52170;SDS011;38689;47.552;18.820;2023-07-08T12:33:46;4.12;;;1.90;;
52170;SDS011;38689;47.552;18.820;2023-07-08T12:36:18;3.12;;;1.98;;
52170;SDS011;38689;47.552;18.820;2023-07-08T12:38:48;4.82;;;2.42;;
52170;SDS011;38689;47.552;18.820;2023-07-08T12:41:19;3.80;;;2.15;;
52170;SDS011;38689;47.552;18.820;2023-07-08T12:43:47;4.20;;;2.00;;
52170;SDS011;38689;47.552;18.820;2023-07-08T12:46:14;4.75;;;2.10;;
52170;SDS011;38689;47.552;18.820;2023-07-08T12:48:42;3.60;;;2.00;;
52170;SDS011;38689;47.552;18.820;2023-07-08T12:51:14;3.78;;;1.80;;
52170;SDS011;38689;47.552;18.820;2023-07-08T12:53:51;4.07;;;1.80;;
52170;SDS011;38689;47.552;18.820;2023-07-08T12:56:18;4.32;;;2.20;;
52170;SDS011;38689;47.552;18.820;2023-07-08T12:58:50;4.32;;;1.92;;
52170;SDS011;38689;47.552;18.820;2023-07-08T13:01:20;4.03;;;2.00;;
52170;SDS011;38689;47.552;18.820;2023-07-08T13:03:48;3.03;;;1.92;;
52170;SDS011;38689;47.552;18.820;2023-07-08T13:06:18;3.85;;;2.35;;
52170;SDS011;38689;47.552;18.820;2023-07-08T13:08:46;3.20;;;2.20;;
52170;SDS011;38689;47.552;18.820;2023-07-08T13:11:13;3.12;;;1.90;;
52170;SDS011;38689;47.552;18.820;2023-07-08T13:13:47;4.25;;;2.30;;
52170;SDS011;38689;47.552;18.820;2023-07-08T13:16:16;2.75;;;1.87;;
52170;SDS011;38689;47.552;18.820;2023-07-08T13:18:42;3.40;;;2.05;;
52170;SDS011;38689;47.552;18.820;2023-07-08T13:21:09;4.55;;;1.90;;
52170;SDS011;38689;47.552;18.820;2023-07-08T13:23:38;3.00;;;1.90;;
52170;SDS011;38689;47.552;18.820;2023-07-08T13:26:23;3.00;;;1.77;;
52170;SDS011;38689;47.552;18.820;2023-07-08T13:28:58;2.67;;;1.70;;
52170;SDS011;38689;47.552;18.820;2023-07-08T13:31:31;2.80;;;1.70;;
52170;SDS011;38689;47.552;18.820;2023-07-08T13:34:06;3.92;;;1.80;;
52170;SDS011;38689;47.552;18.820;2023-07-08T13:36:35;3.10;;;2.00;;
52170;SDS011;38689;47.552;18.820;2023-07-08T13:39:05;3.33;;;2.10;;
52170;SDS011;38689;47.552;18.820;2023-07-08T13:41:32;3.33;;;1.70;;
52170;SDS011;38689;47.552;18.820;2023-07-08T13:44:03;3.30;;;2.00;;
52170;SDS011;38689;47.552;18.820;2023-07-08T13:46:37;3.35;;;2.20;;
52170;SDS011;38689;47.552;18.820;2023-07-08T13:54:43;3.45;;;2.15;;
52170;SDS011;38689;47.552;18.820;2023-07-08T13:57:13;4.28;;;2.10;;
52170;SDS011;38689;47.552;18.820;2023-07-08T13:59:42;2.65;;;1.90;;
52170;SDS011;38689;47.552;18.820;2023-07-08T14:02:15;4.43;;;2.05;;
52170;SDS011;38689;47.552;18.820;2023-07-08T14:04:45;4.97;;;2.22;;
52170;SDS011;38689;47.552;18.820;2023-07-08T14:07:23;3.47;;;2.10;;
52170;SDS011;38689;47.552;18.820;2023-07-08T14:09:50;3.25;;;2.30;;
52170;SDS011;38689;47.552;18.820;2023-07-08T14:12:16;2.95;;;1.85;;
52170;SDS011;38689;47.552;18.820;2023-07-08T14:14:42;3.37;;;1.87;;
52170;SDS011;38689;47.552;18.820;2023-07-08T14:17:09;2.65;;;1.90;;
52170;SDS011;38689;47.552;18.820;2023-07-08T14:19:37;3.42;;;2.12;;
52170;SDS011;38689;47.552;18.820;2023-07-08T14:24:41;3.75;;;2.45;;
52170;SDS011;38689;47.552;18.820;2023-07-08T14:27:08;5.03;;;2.47;;
52170;SDS011;38689;47.552;18.820;2023-07-08T14:29:39;3.87;;;2.62;;
52170;SDS011;38689;47.552;18.820;2023-07-08T14:34:42;3.55;;;2.28;;
52170;SDS011;38689;47.552;18.820;2023-07-08T14:37:15;3.35;;;2.30;;
52170;SDS011;38689;47.552;18.820;2023-07-08T14:39:43;3.80;;;2.45;;
52170;SDS011;38689;47.552;18.820;2023-07-08T14:42:12;3.05;;;2.17;;
52170;SDS011;38689;47.552;18.820;2023-07-08T14:44:40;2.85;;;1.92;;
52170;SDS011;38689;47.552;18.820;2023-07-08T14:47:08;3.53;;;2.10;;
52170;SDS011;38689;47.552;18.820;2023-07-08T14:49:35;3.62;;;2.10;;
52170;SDS011;38689;47.552;18.820;2023-07-08T14:52:01;4.55;;;2.12;;
52170;SDS011;38689;47.552;18.820;2023-07-08T14:54:28;3.08;;;2.10;;
52170;SDS011;38689;47.552;18.820;2023-07-08T14:56:57;3.50;;;2.22;;
52170;SDS011;38689;47.552;18.820;2023-07-08T14:59:23;3.72;;;1.98;;
52170;SDS011;38689;47.552;18.820;2023-07-08T15:01:51;4.40;;;2.00;;
52170;SDS011;38689;47.552;18.820;2023-07-08T15:04:18;4.10;;;2.20;;
52170;SDS011;38689;47.552;18.820;2023-07-08T15:06:45;2.70;;;2.00;;
52170;SDS011;38689;47.552;18.820;2023-07-08T15:09:11;2.97;;;2.20;;
52170;SDS011;38689;47.552;18.820;2023-07-08T15:11:39;3.40;;;2.20;;
52170;SDS011;38689;47.552;18.820;2023-07-08T15:14:20;3.92;;;2.45;;
52170;SDS011;38689;47.552;18.820;2023-07-08T15:16:49;4.47;;;2.45;;
52170;SDS011;38689;47.552;18.820;2023-07-08T15:19:16;3.45;;;2.50;;
52170;SDS011;38689;47.552;18.820;2023-07-08T15:21:42;3.08;;;2.35;;
52170;SDS011;38689;47.552;18.820;2023-07-08T15:24:10;3.37;;;2.37;;
52170;SDS011;38689;47.552;18.820;2023-07-08T15:26:37;4.50;;;2.60;;
52170;SDS011;38689;47.552;18.820;2023-07-08T15:29:08;3.55;;;2.05;;
52170;SDS011;38689;47.552;18.820;2023-07-08T15:31:39;3.87;;;2.25;;
52170;SDS011;38689;47.552;18.820;2023-07-08T15:34:13;3.83;;;2.35;;
52170;SDS011;38689;47.552;18.820;2023-07-08T15:36:40;3.03;;;2.10;;
52170;SDS011;38689;47.552;18.820;2023-07-08T15:39:06;3.60;;;2.10;;
52170;SDS011;38689;47.552;18.820;2023-07-08T15:41:32;3.10;;;1.85;;
52170;SDS011;38689;47.552;18.820;2023-07-08T15:43:58;3.10;;;2.20;;
52170;SDS011;38689;47.552;18.820;2023-07-08T15:46:27;3.55;;;2.20;;
52170;SDS011;38689;47.552;18.820;2023-07-08T15:48:58;4.65;;;2.15;;
52170;SDS011;38689;47.552;18.820;2023-07-08T15:51:24;4.50;;;2.30;;